createdAt,value
2017-06-17T00:00:09.143Z,17.10
2017-06-17T00:02:37.202Z,17.00
2017-06-17T00:05:05.279Z,17.00
2017-06-17T00:07:33.355Z,16.90
2017-06-17T00:10:01.429Z,16.90
2017-06-17T00:12:29.494Z,17.00
2017-06-17T00:14:57.583Z,17.00
2017-06-17T00:17:25.660Z,17.00
2017-06-17T00:19:53.731Z,16.90
2017-06-17T00:22:21.812Z,16.90
2017-06-17T00:24:49.871Z,16.90
2017-06-17T00:27:17.948Z,16.80
2017-06-17T00:29:46.019Z,16.70
2017-06-17T00:32:14.115Z,16.70
2017-06-17T00:34:42.942Z,16.50
2017-06-17T00:37:11.020Z,16.50
2017-06-17T00:39:39.092Z,16.50
2017-06-17T00:42:07.164Z,16.50
2017-06-17T00:44:35.244Z,16.40
2017-06-17T00:47:03.301Z,16.50
2017-06-17T00:49:31.374Z,16.50
2017-06-17T00:51:59.447Z,16.50
2017-06-17T00:54:27.523Z,16.50
2017-06-17T00:56:55.590Z,16.40
2017-06-17T00:59:23.672Z,16.40
2017-06-17T01:01:51.739Z,16.30
2017-06-17T01:04:19.811Z,16.30
2017-06-17T01:06:47.882Z,16.20
2017-06-17T01:09:15.954Z,16.20
2017-06-17T01:11:44.027Z,16.30
2017-06-17T01:14:12.099Z,16.30
2017-06-17T01:16:40.171Z,16.30
2017-06-17T01:19:08.242Z,16.30
2017-06-17T01:21:36.320Z,16.40
2017-06-17T01:24:04.402Z,16.40
2017-06-17T01:26:32.483Z,16.40
2017-06-17T01:29:00.555Z,16.50
2017-06-17T01:31:28.627Z,16.50
2017-06-17T01:33:56.704Z,16.40
2017-06-17T01:36:24.790Z,16.30
2017-06-17T01:38:52.846Z,16.30
2017-06-17T01:41:20.919Z,16.30
2017-06-17T01:43:48.996Z,16.30
2017-06-17T01:46:17.059Z,16.30
2017-06-17T01:48:45.139Z,16.30
2017-06-17T01:51:13.207Z,16.20
2017-06-17T01:53:41.279Z,16.20
2017-06-17T01:56:09.349Z,16.20
2017-06-17T01:58:37.432Z,16.30
2017-06-17T02:01:05.490Z,16.20
2017-06-17T02:03:33.587Z,16.10
2017-06-17T02:06:01.655Z,16.10
2017-06-17T02:08:29.731Z,16.10
2017-06-17T02:10:57.803Z,16.00
2017-06-17T02:13:25.870Z,15.90
2017-06-17T02:15:53.947Z,15.90
2017-06-17T02:18:22.014Z,15.90
2017-06-17T02:20:50.092Z,15.90
2017-06-17T02:23:18.167Z,15.90
2017-06-17T02:25:46.248Z,15.80
2017-06-17T02:28:14.318Z,15.80
2017-06-17T02:30:42.411Z,15.80
2017-06-17T02:33:11.242Z,15.80
2017-06-17T02:35:39.306Z,15.80
2017-06-17T02:38:07.383Z,15.80
2017-06-17T02:40:35.454Z,15.70
2017-06-17T02:43:03.532Z,15.80
2017-06-17T02:45:31.608Z,15.70
2017-06-17T02:47:59.687Z,15.70
2017-06-17T02:50:27.760Z,15.60
2017-06-17T02:52:55.840Z,15.70
2017-06-17T02:55:23.903Z,15.50
2017-06-17T02:57:51.990Z,15.50
2017-06-17T03:00:20.066Z,15.50
2017-06-17T03:02:48.139Z,15.40
2017-06-17T03:05:16.211Z,15.40
2017-06-17T03:07:44.296Z,15.40
2017-06-17T03:10:12.367Z,15.40
2017-06-17T03:12:40.439Z,15.30
2017-06-17T03:15:09.293Z,15.20
2017-06-17T03:17:37.358Z,15.10
2017-06-17T03:20:05.434Z,15.20
2017-06-17T03:22:33.507Z,15.20
2017-06-17T03:25:01.598Z,15.20
2017-06-17T03:27:29.667Z,15.20
2017-06-17T03:29:57.739Z,15.10
2017-06-17T03:32:25.815Z,15.20
2017-06-17T03:34:53.882Z,15.20
2017-06-17T03:37:21.964Z,15.20
2017-06-17T03:39:50.030Z,15.20
2017-06-17T03:42:18.107Z,15.20
2017-06-17T03:44:46.180Z,15.10
2017-06-17T03:47:14.259Z,15.20
2017-06-17T03:49:42.327Z,15.10
2017-06-17T03:52:10.404Z,15.00
2017-06-17T03:54:38.478Z,14.90
2017-06-17T03:57:06.552Z,14.90
2017-06-17T03:59:34.618Z,14.90
2017-06-17T04:02:02.678Z,14.80
2017-06-17T04:04:30.751Z,14.90
2017-06-17T04:06:58.819Z,14.70
2017-06-17T04:09:26.925Z,14.80
2017-06-17T04:11:54.983Z,14.80
2017-06-17T04:14:23.071Z,14.90
2017-06-17T04:16:51.139Z,14.90
2017-06-17T04:19:19.198Z,14.90
2017-06-17T04:21:47.271Z,14.80
2017-06-17T04:24:15.354Z,14.80
2017-06-17T04:26:43.431Z,14.70
2017-06-17T04:29:12.271Z,14.80
2017-06-17T04:31:40.347Z,14.80
2017-06-17T04:34:08.415Z,14.80
2017-06-17T04:36:36.515Z,14.80
2017-06-17T04:39:04.578Z,14.90
2017-06-17T04:41:32.651Z,15.00
2017-06-17T04:44:00.743Z,15.00
2017-06-17T04:46:28.816Z,15.00
2017-06-17T04:48:56.887Z,15.00
2017-06-17T04:51:24.959Z,15.10
2017-06-17T04:53:53.035Z,15.00
2017-06-17T04:56:21.107Z,15.00
2017-06-17T04:58:49.174Z,15.00
2017-06-17T05:01:17.251Z,15.20
2017-06-17T05:03:45.340Z,15.30
2017-06-17T05:06:14.170Z,15.50
2017-06-17T05:08:42.247Z,15.50
2017-06-17T05:11:10.319Z,15.70
2017-06-17T05:13:38.401Z,15.90
2017-06-17T05:16:06.479Z,15.80
2017-06-17T05:18:34.546Z,16.00
2017-06-17T05:21:02.630Z,16.10
2017-06-17T05:23:30.700Z,16.10
2017-06-17T05:25:58.774Z,16.20
2017-06-17T05:28:26.846Z,16.30
2017-06-17T05:30:54.939Z,16.40
2017-06-17T05:33:23.008Z,16.40
2017-06-17T05:35:51.083Z,16.50
2017-06-17T05:38:19.154Z,16.60
2017-06-17T05:40:47.227Z,16.80
2017-06-17T05:43:15.307Z,16.90
2017-06-17T05:45:43.369Z,17.10
2017-06-17T05:48:11.443Z,17.20
2017-06-17T05:50:39.520Z,17.30
2017-06-17T05:53:07.588Z,16.90
2017-06-17T05:55:35.664Z,16.90
2017-06-17T05:58:03.753Z,17.10
2017-06-17T06:00:32.586Z,17.40
2017-06-17T06:03:00.642Z,17.40
2017-06-17T06:05:28.728Z,17.50
2017-06-17T06:07:56.813Z,17.60
2017-06-17T06:10:24.887Z,17.70
2017-06-17T06:12:52.960Z,17.80
2017-06-17T06:15:21.067Z,17.80
2017-06-17T06:17:49.126Z,18.00
2017-06-17T06:20:17.199Z,18.20
2017-06-17T06:22:45.266Z,18.20
2017-06-17T06:25:13.363Z,18.10
2017-06-17T06:27:42.204Z,18.00
2017-06-17T06:30:10.291Z,18.00
2017-06-17T06:32:38.382Z,18.10
2017-06-17T06:35:06.482Z,18.30
2017-06-17T06:37:35.326Z,18.50
2017-06-17T06:40:03.399Z,18.50
2017-06-17T06:42:31.474Z,18.50
2017-06-17T06:44:59.549Z,18.60
2017-06-17T06:47:27.635Z,18.50
2017-06-17T06:49:55.703Z,18.50
2017-06-17T06:52:23.787Z,18.80
2017-06-17T06:54:51.863Z,18.50
2017-06-17T06:57:19.931Z,18.40
2017-06-17T06:59:47.998Z,18.20
2017-06-17T07:02:16.080Z,18.30
2017-06-17T07:04:44.158Z,18.30
2017-06-17T07:07:13.011Z,18.20
2017-06-17T07:09:41.112Z,18.20
2017-06-17T07:12:09.180Z,18.20
2017-06-17T07:14:37.250Z,18.20
2017-06-17T07:17:05.336Z,18.20
2017-06-17T07:19:34.183Z,18.10
2017-06-17T07:22:02.259Z,18.10
2017-06-17T07:24:30.339Z,18.10
2017-06-17T07:26:58.431Z,18.00
2017-06-17T07:29:26.504Z,18.00
2017-06-17T07:31:54.576Z,18.00
2017-06-17T07:34:22.647Z,18.00
2017-06-17T07:36:50.712Z,17.90
2017-06-17T07:39:18.802Z,17.90
2017-06-17T07:41:46.862Z,18.00
2017-06-17T07:44:14.938Z,18.10
2017-06-17T07:46:43.015Z,18.00
2017-06-17T07:49:11.104Z,18.00
2017-06-17T07:51:39.934Z,17.70
2017-06-17T07:54:08.674Z,17.70
2017-06-17T07:56:36.744Z,17.70
2017-06-17T07:59:04.807Z,17.60
2017-06-17T08:01:32.886Z,17.70
2017-06-17T08:04:00.946Z,17.70
2017-06-17T08:06:29.120Z,17.90
2017-06-17T08:08:57.184Z,18.00
2017-06-17T08:11:25.286Z,17.90
2017-06-17T08:13:54.125Z,18.00
2017-06-17T08:16:22.195Z,18.00
2017-06-17T08:18:50.271Z,17.90
2017-06-17T08:21:18.391Z,17.80
2017-06-17T08:23:47.231Z,17.80
2017-06-17T08:26:15.299Z,17.80
2017-06-17T08:28:43.374Z,17.80
2017-06-17T08:31:11.511Z,17.90
2017-06-17T08:33:39.587Z,17.90
2017-06-17T08:36:08.423Z,17.90
2017-06-17T08:38:36.511Z,17.80
2017-06-17T08:41:04.584Z,17.90
2017-06-17T08:43:32.655Z,17.80
2017-06-17T08:46:00.731Z,17.80
2017-06-17T08:48:28.842Z,17.90
2017-06-17T08:50:56.919Z,17.90
2017-06-17T08:53:24.982Z,18.00
2017-06-17T08:55:53.831Z,18.10
2017-06-17T08:58:21.903Z,18.10
2017-06-17T09:00:49.975Z,18.30
2017-06-17T09:03:18.051Z,18.50
2017-06-17T09:05:46.122Z,18.60
2017-06-17T09:08:14.195Z,18.50
2017-06-17T09:10:42.291Z,18.50
2017-06-17T09:13:10.363Z,18.50
2017-06-17T09:15:38.429Z,18.50
2017-06-17T09:18:06.503Z,18.40
2017-06-17T09:20:34.576Z,18.30
2017-06-17T09:23:02.655Z,18.30
2017-06-17T09:25:30.721Z,18.30
2017-06-17T09:27:58.796Z,18.30
2017-06-17T09:30:26.870Z,18.30
2017-06-17T09:32:54.947Z,18.30
2017-06-17T09:35:23.017Z,18.40
2017-06-17T09:37:51.097Z,18.40
2017-06-17T09:40:19.173Z,18.40
2017-06-17T09:42:48.027Z,18.40
2017-06-17T09:45:16.094Z,18.40
2017-06-17T09:47:44.182Z,18.40
2017-06-17T09:50:12.256Z,18.40
2017-06-17T09:52:40.318Z,18.50
2017-06-17T09:55:08.402Z,18.50
2017-06-17T09:57:36.475Z,18.50
2017-06-17T10:00:04.542Z,18.40
2017-06-17T10:02:32.607Z,18.40
2017-06-17T10:05:00.691Z,18.60
2017-06-17T10:07:28.776Z,18.70
2017-06-17T10:09:56.838Z,18.60
2017-06-17T10:12:24.914Z,18.60
2017-06-17T10:14:52.985Z,18.60
2017-06-17T10:17:21.076Z,18.50
2017-06-17T10:19:49.907Z,18.70
2017-06-17T10:22:17.991Z,18.70
2017-06-17T10:24:46.054Z,18.70
2017-06-17T10:27:14.120Z,18.70
2017-06-17T10:29:42.194Z,18.80
2017-06-17T10:32:10.266Z,18.90
2017-06-17T10:34:38.365Z,19.00
2017-06-17T10:37:06.443Z,19.00
2017-06-17T10:39:34.507Z,19.20
2017-06-17T10:42:02.582Z,19.30
2017-06-17T10:44:30.655Z,19.30
2017-06-17T10:46:58.738Z,19.30
2017-06-17T10:49:27.184Z,19.40
2017-06-17T10:51:55.253Z,19.40
2017-06-17T10:54:23.331Z,19.40
2017-06-17T10:56:51.403Z,19.30
2017-06-17T10:59:19.475Z,19.30
2017-06-17T11:01:47.547Z,19.40
2017-06-17T11:04:15.644Z,19.40
2017-06-17T11:06:43.710Z,19.50
2017-06-17T11:09:11.783Z,19.40
2017-06-17T11:11:39.864Z,19.40
2017-06-17T11:14:07.927Z,19.60
2017-06-17T11:16:36.003Z,19.60
2017-06-17T11:19:04.074Z,19.70
2017-06-17T11:21:32.163Z,19.80
2017-06-17T11:24:00.249Z,19.70
2017-06-17T11:26:29.112Z,19.90
2017-06-17T11:28:57.175Z,19.80
2017-06-17T11:31:25.247Z,20.00
2017-06-17T11:33:53.323Z,20.00
2017-06-17T11:36:21.390Z,20.10
2017-06-17T11:38:49.470Z,20.10
2017-06-17T11:41:17.623Z,20.20
2017-06-17T11:43:45.695Z,20.20
2017-06-17T11:46:13.771Z,20.30
2017-06-17T11:48:41.843Z,20.20
2017-06-17T11:51:09.915Z,20.20
2017-06-17T11:53:38.038Z,20.30
2017-06-17T11:56:06.887Z,20.40
2017-06-17T11:58:34.951Z,20.40
2017-06-17T12:01:03.023Z,20.40
2017-06-17T12:03:31.099Z,20.60
2017-06-17T12:05:59.178Z,20.60
2017-06-17T12:08:27.239Z,20.70
2017-06-17T12:10:55.312Z,20.80
2017-06-17T12:13:23.383Z,20.70
2017-06-17T12:15:51.471Z,20.70
2017-06-17T12:18:19.539Z,20.80
2017-06-17T12:20:47.626Z,20.90
2017-06-17T12:23:15.695Z,20.90
2017-06-17T12:25:43.767Z,20.80
2017-06-17T12:28:11.838Z,20.80
2017-06-17T12:30:39.912Z,20.80
2017-06-17T12:33:07.983Z,20.80
2017-06-17T12:35:36.056Z,20.80
2017-06-17T12:38:04.146Z,20.80
2017-06-17T12:40:32.230Z,20.80
2017-06-17T12:43:00.303Z,20.90
2017-06-17T12:45:29.143Z,21.00
2017-06-17T12:47:57.238Z,21.00
2017-06-17T12:50:25.307Z,21.00
2017-06-17T12:52:53.388Z,21.00
2017-06-17T12:55:21.456Z,21.00
2017-06-17T12:57:49.531Z,21.00
2017-06-17T13:00:17.603Z,21.00
2017-06-17T13:02:45.672Z,21.00
2017-06-17T13:05:14.559Z,21.10
2017-06-17T13:07:42.635Z,21.00
2017-06-17T13:10:10.716Z,21.00
2017-06-17T13:12:38.798Z,21.00
2017-06-17T13:15:06.883Z,21.10
2017-06-17T13:17:34.955Z,21.10
2017-06-17T13:20:03.010Z,21.00
2017-06-17T13:22:31.095Z,21.10
2017-06-17T13:24:59.154Z,21.10
2017-06-17T13:27:27.231Z,21.10
2017-06-17T13:29:55.331Z,21.10
2017-06-17T13:32:23.399Z,21.10
2017-06-17T13:34:52.230Z,21.30
2017-06-17T13:37:20.351Z,21.30
2017-06-17T13:39:48.410Z,21.40
2017-06-17T13:42:16.522Z,21.60
2017-06-17T13:44:44.591Z,21.60
2017-06-17T13:47:12.681Z,21.60
2017-06-17T13:49:40.750Z,21.60
2017-06-17T13:52:08.816Z,21.60
2017-06-17T13:54:36.891Z,21.60
2017-06-17T13:57:04.977Z,21.70
2017-06-17T13:59:33.062Z,21.80
2017-06-17T14:02:01.125Z,21.60
2017-06-17T14:04:29.195Z,21.40
2017-06-17T14:06:57.272Z,21.40
2017-06-17T14:09:25.340Z,21.30
2017-06-17T14:11:53.419Z,21.20
2017-06-17T14:14:21.487Z,21.20
2017-06-17T14:16:49.560Z,21.30
2017-06-17T14:19:17.630Z,21.30
2017-06-17T14:21:51.199Z,21.30
2017-06-17T14:24:19.267Z,21.20
2017-06-17T14:26:48.102Z,21.10
2017-06-17T14:29:16.192Z,21.10
2017-06-17T14:31:44.263Z,21.10
2017-06-17T14:34:12.338Z,21.10
2017-06-17T14:36:40.436Z,21.10
2017-06-17T14:39:08.507Z,21.10
2017-06-17T14:41:36.571Z,21.20
2017-06-17T14:44:04.655Z,21.30
2017-06-17T14:46:33.491Z,21.50
2017-06-17T14:49:01.566Z,21.50
2017-06-17T14:51:29.654Z,21.60
2017-06-17T14:53:57.715Z,21.60
2017-06-17T14:56:25.800Z,21.50
2017-06-17T14:58:53.863Z,21.40
2017-06-17T15:01:21.951Z,21.30
2017-06-17T15:03:50.021Z,21.40
2017-06-17T15:06:18.091Z,21.30
2017-06-17T15:08:46.170Z,21.30
2017-06-17T15:11:14.286Z,21.30
2017-06-17T15:13:42.355Z,21.30
2017-06-17T15:16:11.195Z,21.30
2017-06-17T15:18:39.275Z,21.30
2017-06-17T15:21:07.347Z,21.20
2017-06-17T15:23:35.421Z,21.10
2017-06-17T15:26:03.490Z,21.10
2017-06-17T15:28:31.591Z,21.00
2017-06-17T15:30:59.669Z,21.00
2017-06-17T15:33:28.502Z,20.90
2017-06-17T15:35:56.577Z,20.90
2017-06-17T15:38:24.655Z,20.90
2017-06-17T15:40:52.730Z,20.80
2017-06-17T15:43:20.798Z,20.90
2017-06-17T15:45:48.924Z,20.90
2017-06-17T15:48:17.762Z,20.80
2017-06-17T15:50:45.843Z,20.80
2017-06-17T15:53:13.906Z,20.70
2017-06-17T15:55:42.004Z,20.70
2017-06-17T15:58:10.071Z,20.60
2017-06-17T16:00:38.143Z,20.60
2017-06-17T16:03:06.215Z,20.50
2017-06-17T16:05:34.290Z,20.50
2017-06-17T16:08:02.365Z,20.50
2017-06-17T16:10:30.459Z,20.40
2017-06-17T16:12:58.530Z,20.40
2017-06-17T16:15:26.603Z,20.50
2017-06-17T16:17:54.675Z,20.40
2017-06-17T16:20:22.752Z,20.30
2017-06-17T16:22:50.831Z,20.20
2017-06-17T16:25:19.670Z,20.20
2017-06-17T16:27:47.746Z,20.20
2017-06-17T16:30:15.826Z,20.10
2017-06-17T16:32:43.898Z,20.00
2017-06-17T16:35:11.987Z,19.90
2017-06-17T16:37:40.054Z,19.90
2017-06-17T16:40:08.136Z,19.90
2017-06-17T16:42:36.207Z,19.90
2017-06-17T16:45:04.292Z,19.90
2017-06-17T16:47:32.363Z,19.90
2017-06-17T16:50:00.430Z,19.90
2017-06-17T16:52:28.506Z,19.90
2017-06-17T16:54:56.570Z,19.80
2017-06-17T16:57:24.655Z,19.80
2017-06-17T16:59:52.726Z,19.70
2017-06-17T17:02:20.800Z,19.60
2017-06-17T17:04:49.641Z,19.50
2017-06-17T17:07:17.723Z,19.40
2017-06-17T17:09:45.794Z,19.40
2017-06-17T17:12:13.879Z,19.50
2017-06-17T17:14:41.953Z,19.50
2017-06-17T17:17:10.027Z,19.50
2017-06-17T17:19:38.119Z,19.50
2017-06-17T17:22:06.183Z,19.40
2017-06-17T17:24:34.254Z,19.40
2017-06-17T17:27:02.328Z,19.50
2017-06-17T17:29:30.422Z,19.40
2017-06-17T17:31:59.260Z,19.30
2017-06-17T17:34:27.338Z,19.30
2017-06-17T17:36:55.439Z,19.20
2017-06-17T17:39:23.518Z,19.20
2017-06-17T17:41:51.595Z,19.30
2017-06-17T17:44:19.655Z,19.30
2017-06-17T17:46:47.740Z,19.20
2017-06-17T17:49:15.802Z,19.10
2017-06-17T17:51:43.870Z,19.10
2017-06-17T17:54:11.942Z,19.10
2017-06-17T17:56:40.029Z,19.10
2017-06-17T17:59:08.112Z,19.00
2017-06-17T18:01:36.179Z,18.80
2017-06-17T18:04:04.245Z,18.80
2017-06-17T18:06:32.316Z,18.60
2017-06-17T18:09:00.388Z,18.40
2017-06-17T18:11:28.451Z,18.40
2017-06-17T18:13:56.535Z,18.40
2017-06-17T18:16:24.599Z,18.40
2017-06-17T18:18:52.675Z,18.50
2017-06-17T18:21:20.735Z,18.50
2017-06-17T18:23:48.832Z,18.60
2017-06-17T18:26:16.906Z,18.50
2017-06-17T18:28:45.740Z,18.50
2017-06-17T18:31:13.818Z,18.50
2017-06-17T18:33:41.895Z,18.60
2017-06-17T18:36:09.979Z,18.60
2017-06-17T18:38:38.052Z,18.60
2017-06-17T18:41:06.123Z,18.50
2017-06-17T18:43:34.194Z,18.40
2017-06-17T18:46:02.267Z,18.50
2017-06-17T18:48:30.339Z,18.40
2017-06-17T18:50:58.435Z,18.50
2017-06-17T18:53:26.513Z,18.60
2017-06-17T18:55:54.591Z,18.60
2017-06-17T18:58:23.447Z,18.40
2017-06-17T19:00:51.525Z,18.40
2017-06-17T19:03:19.595Z,18.30
2017-06-17T19:05:47.662Z,18.20
2017-06-17T19:08:15.735Z,18.30
2017-06-17T19:10:43.810Z,18.20
2017-06-17T19:13:11.888Z,18.20
2017-06-17T19:15:39.962Z,18.20
2017-06-17T19:18:08.079Z,18.20
2017-06-17T19:20:36.154Z,18.20
2017-06-17T19:23:04.227Z,18.20
2017-06-17T19:25:32.314Z,18.20
2017-06-17T19:28:00.398Z,18.20
2017-06-17T19:30:28.470Z,18.10
2017-06-17T19:32:56.539Z,18.20
2017-06-17T19:35:24.617Z,18.10
2017-06-17T19:37:52.707Z,18.10
2017-06-17T19:40:20.799Z,18.10
2017-06-17T19:42:48.871Z,18.00
2017-06-17T19:45:16.960Z,18.00
2017-06-17T19:47:45.042Z,18.00
2017-06-17T19:50:13.886Z,18.10
2017-06-17T19:52:41.959Z,18.00
2017-06-17T19:55:10.031Z,18.10
2017-06-17T19:57:38.107Z,18.20
2017-06-17T20:00:06.179Z,18.00
2017-06-17T20:02:34.266Z,17.80
2017-06-17T20:05:02.347Z,17.70
2017-06-17T20:07:30.419Z,17.70
2017-06-17T20:09:58.492Z,17.70
2017-06-17T20:12:26.556Z,17.70
2017-06-17T20:14:54.632Z,17.60
2017-06-17T20:17:22.703Z,17.60
2017-06-17T20:19:50.785Z,17.60
2017-06-17T20:22:24.565Z,17.60
2017-06-17T20:24:52.643Z,17.60
2017-06-17T20:27:20.711Z,17.60
2017-06-17T20:29:48.795Z,17.60
2017-06-17T20:32:16.928Z,17.60
2017-06-17T20:34:45.027Z,17.50
2017-06-17T20:37:13.099Z,17.60
2017-06-17T20:39:41.172Z,17.70
2017-06-17T20:42:09.262Z,17.70
2017-06-17T20:44:37.335Z,17.70
2017-06-17T20:47:05.428Z,17.70
2017-06-17T20:49:33.498Z,17.70
2017-06-17T20:52:02.347Z,17.50
2017-06-17T20:54:30.422Z,17.50
2017-06-17T20:56:58.507Z,17.60
2017-06-17T20:59:26.579Z,17.60
2017-06-17T21:01:54.671Z,17.50
2017-06-17T21:04:22.743Z,17.50
2017-06-17T21:06:51.586Z,17.40
2017-06-17T21:09:19.674Z,17.40
2017-06-17T21:11:47.751Z,17.30
2017-06-17T21:14:15.831Z,17.30
2017-06-17T21:16:43.899Z,17.20
2017-06-17T21:19:11.998Z,17.10
2017-06-17T21:21:40.847Z,17.10
2017-06-17T21:24:08.935Z,17.10
2017-06-17T21:26:37.007Z,17.10
2017-06-17T21:29:05.102Z,17.20
2017-06-17T21:31:33.179Z,17.10
2017-06-17T21:34:01.246Z,17.10
2017-06-17T21:36:29.319Z,17.10
2017-06-17T21:38:57.395Z,17.20
2017-06-17T21:41:25.472Z,17.10
2017-06-17T21:43:54.314Z,17.10
2017-06-17T21:46:22.391Z,17.10
2017-06-17T21:48:50.491Z,17.10
2017-06-17T21:51:18.571Z,17.00
2017-06-17T21:53:46.644Z,17.00
2017-06-17T21:56:14.719Z,17.00
2017-06-17T21:58:43.562Z,17.00
2017-06-17T22:01:11.636Z,17.00
2017-06-17T22:03:39.717Z,16.80
2017-06-17T22:06:07.818Z,16.80
2017-06-17T22:08:35.900Z,16.80
2017-06-17T22:11:03.971Z,16.90
2017-06-17T22:13:32.047Z,16.90
2017-06-17T22:16:00.900Z,16.90
2017-06-17T22:18:28.987Z,16.90
2017-06-17T22:20:57.066Z,16.80
2017-06-17T22:23:25.171Z,16.90
2017-06-17T22:25:54.023Z,17.00
2017-06-17T22:28:22.090Z,17.00
2017-06-17T22:30:50.189Z,17.10
2017-06-17T22:33:18.250Z,17.00
2017-06-17T22:35:46.338Z,17.00
2017-06-17T22:38:15.178Z,17.00
2017-06-17T22:40:43.271Z,17.00
2017-06-17T22:43:11.343Z,17.00
2017-06-17T22:45:39.415Z,17.10
2017-06-17T22:48:07.487Z,17.00
2017-06-17T22:50:35.587Z,17.00
2017-06-17T22:53:03.651Z,17.00
2017-06-17T22:55:31.747Z,17.00
2017-06-17T22:58:00.605Z,17.00
2017-06-17T23:00:28.687Z,17.00
2017-06-17T23:02:56.759Z,17.00
2017-06-17T23:05:24.839Z,17.00
2017-06-17T23:07:52.918Z,17.00
2017-06-17T23:10:21.758Z,17.00
2017-06-17T23:12:49.844Z,17.00
2017-06-17T23:15:17.918Z,17.00
2017-06-17T23:17:46.019Z,17.00
2017-06-17T23:20:14.862Z,16.90
2017-06-17T23:22:42.943Z,16.90
2017-06-17T23:25:11.019Z,16.90
2017-06-17T23:27:39.090Z,16.80
2017-06-17T23:30:07.172Z,16.80
2017-06-17T23:32:35.248Z,16.80
2017-06-17T23:35:03.334Z,16.80
2017-06-17T23:37:31.447Z,16.80
2017-06-17T23:39:59.526Z,16.70
2017-06-17T23:42:27.606Z,16.60
2017-06-17T23:44:55.699Z,16.60
2017-06-17T23:47:23.771Z,16.60
2017-06-17T23:49:51.842Z,16.60
2017-06-17T23:52:19.926Z,16.60
2017-06-17T23:54:47.999Z,16.60
2017-06-17T23:57:16.079Z,16.60
2017-06-17T23:59:44.154Z,16.60
